createdAt,value
2019-04-01T00:00:38.156Z,6.20
2019-04-01T00:03:09.334Z,6.30
2019-04-01T00:05:39.463Z,6.30
2019-04-01T00:08:09.703Z,6.30
2019-04-01T00:10:39.840Z,6.20
2019-04-01T00:13:10.492Z,6.20
2019-04-01T00:15:40.778Z,6.20
2019-04-01T00:18:11.178Z,6.20
2019-04-01T00:20:41.185Z,6.20
2019-04-01T00:23:11.334Z,6.10
2019-04-01T00:25:41.713Z,6.00
2019-04-01T00:28:12.991Z,6.00
2019-04-01T00:30:43.002Z,6.00
2019-04-01T00:33:13.460Z,6.00
2019-04-01T00:35:43.720Z,6.00
2019-04-01T00:38:13.718Z,6.00
2019-04-01T00:40:43.794Z,6.00
2019-04-01T00:43:20.986Z,6.00
2019-04-01T00:45:51.532Z,6.00
2019-04-01T00:48:21.841Z,5.90
2019-04-01T00:50:52.697Z,6.00
2019-04-01T00:53:22.760Z,5.90
2019-04-01T00:55:53.401Z,5.90
2019-04-01T00:58:23.477Z,5.90
2019-04-01T01:00:53.740Z,5.90
2019-04-01T01:03:24.085Z,5.80
2019-04-01T01:05:54.490Z,5.90
2019-04-01T01:08:24.554Z,5.80
2019-04-01T01:10:54.560Z,5.80
2019-04-01T01:13:24.561Z,5.80
2019-04-01T01:15:54.562Z,5.80
2019-04-01T01:18:24.555Z,5.70
2019-04-01T01:20:54.574Z,5.70
2019-04-01T01:23:24.915Z,5.70
2019-04-01T01:25:55.001Z,5.70
2019-04-01T01:28:25.282Z,5.70
2019-04-01T01:30:55.535Z,5.70
2019-04-01T01:33:25.819Z,5.60
2019-04-01T01:35:55.817Z,5.60
2019-04-01T01:38:25.817Z,5.60
2019-04-01T01:40:56.401Z,5.50
2019-04-01T01:43:26.386Z,5.50
2019-04-01T01:45:56.404Z,5.40
2019-04-01T01:48:26.399Z,5.40
2019-04-01T01:50:57.298Z,5.50
2019-04-01T01:53:27.396Z,5.50
2019-04-01T01:55:57.788Z,5.40
2019-04-01T01:58:28.053Z,5.40
2019-04-01T02:00:58.209Z,5.40
2019-04-01T02:03:28.280Z,5.40
2019-04-01T02:05:58.578Z,5.40
2019-04-01T02:08:28.894Z,5.40
2019-04-01T02:10:58.912Z,5.40
2019-04-01T02:13:28.916Z,5.40
2019-04-01T02:15:58.924Z,5.40
2019-04-01T02:18:29.255Z,5.40
2019-04-01T02:20:59.278Z,5.30
2019-04-01T02:23:29.553Z,5.30
2019-04-01T02:25:59.840Z,5.30
2019-04-01T02:28:29.908Z,5.30
2019-04-01T02:30:59.926Z,5.20
2019-04-01T02:33:30.597Z,5.20
2019-04-01T02:36:00.593Z,5.20
2019-04-01T02:38:31.149Z,5.10
2019-04-01T02:41:01.580Z,5.10
2019-04-01T02:43:31.585Z,5.10
2019-04-01T02:46:01.859Z,5.00
2019-04-01T02:48:31.859Z,5.00
2019-04-01T02:51:02.179Z,5.00
2019-04-01T02:53:32.481Z,5.00
2019-04-01T02:56:02.843Z,5.00
2019-04-01T02:58:32.848Z,5.00
2019-04-01T03:01:03.267Z,4.90
2019-04-01T03:03:33.259Z,4.80
2019-04-01T03:06:03.410Z,4.90
2019-04-01T03:08:33.483Z,4.90
2019-04-01T03:11:03.555Z,4.80
2019-04-01T03:13:33.546Z,4.80
2019-04-01T03:16:03.691Z,4.80
2019-04-01T03:18:33.713Z,4.80
2019-04-01T03:21:03.784Z,4.80
2019-04-01T03:23:33.769Z,4.80
2019-04-01T03:26:03.861Z,4.80
2019-04-01T03:28:33.858Z,4.80
2019-04-01T03:31:04.043Z,4.70
2019-04-01T03:33:34.427Z,4.70
2019-04-01T03:36:04.507Z,4.70
2019-04-01T03:38:34.828Z,4.70
2019-04-01T03:41:05.150Z,4.60
2019-04-01T03:43:35.150Z,4.60
2019-04-01T03:46:05.157Z,4.70
2019-04-01T03:48:35.518Z,4.70
2019-04-01T03:51:05.605Z,4.70
2019-04-01T03:53:36.201Z,4.70
2019-04-01T03:56:06.394Z,4.70
2019-04-01T03:58:36.382Z,4.60
2019-04-01T04:01:06.523Z,4.50
2019-04-01T04:03:36.932Z,4.50
2019-04-01T04:06:07.611Z,4.50
2019-04-01T04:08:37.909Z,4.40
2019-04-01T04:11:07.985Z,4.40
2019-04-01T04:13:38.056Z,4.40
2019-04-01T04:16:08.054Z,4.40
2019-04-01T04:18:38.124Z,4.40
2019-04-01T04:21:08.508Z,4.40
2019-04-01T04:23:38.497Z,4.40
2019-04-01T04:26:08.591Z,4.30
2019-04-01T04:28:38.593Z,4.30
2019-04-01T04:31:08.738Z,4.40
2019-04-01T04:33:39.017Z,4.40
2019-04-01T04:36:09.025Z,4.40
2019-04-01T04:38:39.107Z,4.40
2019-04-01T04:41:09.110Z,4.30
2019-04-01T04:43:39.398Z,4.20
2019-04-01T04:46:09.398Z,4.30
2019-04-01T04:48:39.409Z,4.20
2019-04-01T04:51:09.394Z,4.30
2019-04-01T04:53:40.247Z,4.20
2019-04-01T04:56:10.260Z,4.20
2019-04-01T04:58:40.855Z,4.20
2019-04-01T05:01:11.221Z,4.30
2019-04-01T05:03:41.595Z,4.20
2019-04-01T05:06:11.900Z,4.20
2019-04-01T05:08:41.891Z,4.30
2019-04-01T05:11:11.896Z,4.30
2019-04-01T05:13:41.916Z,4.30
2019-04-01T05:16:12.959Z,4.30
2019-04-01T05:18:43.200Z,4.30
2019-04-01T05:21:15.860Z,4.30
2019-04-01T05:23:47.733Z,4.20
2019-04-01T05:26:20.832Z,4.30
2019-04-01T05:28:51.797Z,4.30
2019-04-01T05:31:25.582Z,4.30
2019-04-01T05:33:58.922Z,4.30
2019-04-01T05:36:31.578Z,4.30
2019-04-01T05:39:01.663Z,4.30
2019-04-01T05:41:32.277Z,4.40
2019-04-01T05:44:03.230Z,4.40
2019-04-01T05:46:33.685Z,4.40
2019-04-01T05:49:04.179Z,4.50
2019-04-01T05:51:34.338Z,4.50
2019-04-01T05:54:04.626Z,4.50
2019-04-01T05:56:34.767Z,4.50
2019-04-01T05:59:04.834Z,4.50
2019-04-01T06:01:38.866Z,4.60
2019-04-01T06:04:09.033Z,4.60
2019-04-01T06:06:39.561Z,4.60
2019-04-01T06:09:10.548Z,4.70
2019-04-01T06:11:40.972Z,4.80
2019-04-01T06:14:11.133Z,4.90
2019-04-01T06:16:41.489Z,4.90
2019-04-01T06:19:11.642Z,4.90
2019-04-01T06:21:41.781Z,4.90
2019-04-01T06:24:11.870Z,5.00
2019-04-01T06:26:42.271Z,5.10
2019-04-01T06:29:13.030Z,5.10
2019-04-01T06:31:43.110Z,5.20
2019-04-01T06:34:13.257Z,5.20
2019-04-01T06:36:43.717Z,5.40
2019-04-01T06:39:13.783Z,5.40
2019-04-01T06:41:44.773Z,5.40
2019-04-01T06:44:14.873Z,5.50
2019-04-01T06:46:45.210Z,5.60
2019-04-01T06:49:15.269Z,5.60
2019-04-01T06:51:45.747Z,5.70
2019-04-01T06:54:15.823Z,5.70
2019-04-01T06:56:46.176Z,5.80
2019-04-01T06:59:16.327Z,5.80
2019-04-01T07:01:46.463Z,5.90
2019-04-01T07:04:16.658Z,5.90
2019-04-01T07:06:47.078Z,5.90
2019-04-01T07:09:17.222Z,6.00
2019-04-01T07:11:47.520Z,6.00
2019-04-01T07:14:17.591Z,6.00
2019-04-01T07:16:47.729Z,6.10
2019-04-01T07:19:18.087Z,6.10
2019-04-01T07:21:48.242Z,6.20
2019-04-01T07:24:18.503Z,6.20
2019-04-01T07:26:48.653Z,6.20
2019-04-01T07:29:18.809Z,6.30
2019-04-01T07:31:49.778Z,6.40
2019-04-01T07:34:20.129Z,6.40
2019-04-01T07:36:50.534Z,6.50
2019-04-01T07:39:20.760Z,6.60
2019-04-01T07:41:50.902Z,6.70
2019-04-01T07:44:21.611Z,6.80
2019-04-01T07:46:53.325Z,6.90
2019-04-01T07:49:23.407Z,7.00
2019-04-01T07:51:53.563Z,7.00
2019-04-01T07:54:23.672Z,7.00
2019-04-01T07:56:53.816Z,7.10
2019-04-01T07:59:24.294Z,7.20
2019-04-01T08:01:54.729Z,7.40
2019-04-01T08:04:24.899Z,7.50
2019-04-01T08:06:55.039Z,7.70
2019-04-01T08:09:25.476Z,7.70
2019-04-01T08:11:55.737Z,7.70
2019-04-01T08:14:26.446Z,7.80
2019-04-01T08:16:58.593Z,7.90
2019-04-01T08:19:28.442Z,8.00
2019-04-01T08:21:58.865Z,8.10
2019-04-01T08:24:28.901Z,8.20
2019-04-01T08:26:59.028Z,8.40
2019-04-01T08:29:30.717Z,8.60
2019-04-01T08:32:01.101Z,8.60
2019-04-01T08:34:31.578Z,8.70
2019-04-01T08:37:01.729Z,8.80
2019-04-01T08:39:32.464Z,8.80
2019-04-01T08:42:03.170Z,8.90
2019-04-01T08:44:33.666Z,8.90
2019-04-01T08:47:04.085Z,8.90
2019-04-01T08:49:34.559Z,9.00
2019-04-01T08:52:05.078Z,9.10
2019-04-01T08:54:35.241Z,9.20
2019-04-01T08:57:05.467Z,9.10
2019-04-01T08:59:36.108Z,9.30
2019-04-01T09:02:17.268Z,9.40
2019-04-01T09:04:38.409Z,9.50
2019-04-01T09:07:08.492Z,9.50
2019-04-01T09:09:39.486Z,9.70
2019-04-01T09:12:10.148Z,9.70
2019-04-01T09:14:40.719Z,9.80
2019-04-01T09:17:11.153Z,10.00
2019-04-01T09:19:41.419Z,10.10
2019-04-01T09:22:11.657Z,10.00
2019-04-01T09:24:41.750Z,10.10
2019-04-01T09:27:11.916Z,10.30
2019-04-01T09:29:41.928Z,10.40
2019-04-01T09:32:12.084Z,10.50
2019-04-01T09:34:42.119Z,10.70
2019-04-01T09:37:12.133Z,10.70
2019-04-01T09:39:42.321Z,10.90
2019-04-01T09:42:12.322Z,10.90
2019-04-01T09:44:42.423Z,10.90
2019-04-01T09:47:12.443Z,10.90
2019-04-01T09:49:42.598Z,11.00
2019-04-01T09:52:12.684Z,11.10
2019-04-01T09:54:43.034Z,11.20
2019-04-01T09:57:17.879Z,11.50
2019-04-01T09:59:45.073Z,11.60
2019-04-01T10:02:15.692Z,11.60
2019-04-01T10:04:45.837Z,11.60
2019-04-01T10:07:15.929Z,11.70
2019-04-01T10:09:46.099Z,11.70
2019-04-01T10:12:16.204Z,12.00
2019-04-01T10:14:46.506Z,12.20
2019-04-01T10:17:16.583Z,12.40
2019-04-01T10:19:46.863Z,12.20
2019-04-01T10:22:16.890Z,12.30
2019-04-01T10:24:47.007Z,12.50
2019-04-01T10:27:17.159Z,12.40
2019-04-01T10:29:47.261Z,12.60
2019-04-01T10:32:17.281Z,12.90
2019-04-01T10:34:47.386Z,12.90
2019-04-01T10:37:17.392Z,13.10
2019-04-01T10:39:47.571Z,13.00
2019-04-01T10:42:17.865Z,13.20
2019-04-01T10:44:48.040Z,13.00
2019-04-01T10:47:18.461Z,13.00
2019-04-01T10:49:48.472Z,13.30
2019-04-01T10:52:18.474Z,13.40
2019-04-01T10:54:48.575Z,13.40
2019-04-01T10:57:18.581Z,13.60
2019-04-01T10:59:48.601Z,13.70
2019-04-01T11:02:18.863Z,13.70
2019-04-01T11:04:49.335Z,13.80
2019-04-01T11:07:19.515Z,14.00
2019-04-01T11:09:49.593Z,14.70
2019-04-01T11:12:19.748Z,15.20
2019-04-01T11:14:49.902Z,15.70
2019-04-01T11:17:19.970Z,16.00
2019-04-01T11:19:49.987Z,15.70
2019-04-01T11:22:20.065Z,16.10
2019-04-01T11:24:50.733Z,16.20
2019-04-01T11:27:21.134Z,16.30
2019-04-01T11:29:51.510Z,16.10
2019-04-01T11:32:21.884Z,16.30
2019-04-01T11:34:51.899Z,16.60
2019-04-01T11:37:22.023Z,16.60
2019-04-01T11:39:52.199Z,16.80
2019-04-01T11:42:23.167Z,16.70
2019-04-01T11:44:53.881Z,16.60
2019-04-01T11:47:24.022Z,16.80
2019-04-01T11:49:54.125Z,17.60
2019-04-01T11:52:24.325Z,18.00
2019-04-01T11:54:54.291Z,18.40
2019-04-01T11:57:24.372Z,17.90
2019-04-01T11:59:54.676Z,17.60
2019-04-01T12:02:24.831Z,17.60
2019-04-01T12:04:54.905Z,17.60
2019-04-01T12:07:25.031Z,18.10
2019-04-01T12:09:56.094Z,18.50
2019-04-01T12:12:26.212Z,18.60
2019-04-01T12:14:56.652Z,18.00
2019-04-01T12:17:26.737Z,18.00
2019-04-01T12:19:56.739Z,18.00
2019-04-01T12:22:26.749Z,18.00
2019-04-01T12:24:56.749Z,18.10
2019-04-01T12:27:27.055Z,18.30
2019-04-01T12:29:57.446Z,18.40
2019-04-01T12:32:27.454Z,19.20
2019-04-01T12:34:57.911Z,19.20
2019-04-01T12:37:30.043Z,19.50
2019-04-01T12:40:00.378Z,19.80
2019-04-01T12:42:30.530Z,20.00
2019-04-01T12:45:00.529Z,19.90
2019-04-01T12:47:30.858Z,20.30
2019-04-01T12:50:01.188Z,20.30
2019-04-01T12:52:31.283Z,20.20
2019-04-01T12:55:01.497Z,19.50
2019-04-01T12:57:31.931Z,20.00
2019-04-01T13:00:02.163Z,20.40
2019-04-01T13:02:32.178Z,20.50
2019-04-01T13:05:02.201Z,20.30
2019-04-01T13:07:32.812Z,20.10
2019-04-01T13:10:02.916Z,20.10
2019-04-01T13:12:33.183Z,20.20
2019-04-01T13:15:03.334Z,20.80
2019-04-01T13:17:33.342Z,20.60
2019-04-01T13:20:03.336Z,20.50
2019-04-01T13:22:33.509Z,20.10
2019-04-01T13:25:05.786Z,20.80
2019-04-01T13:27:35.477Z,20.80
2019-04-01T13:30:06.365Z,20.40
2019-04-01T13:32:36.479Z,20.60
2019-04-01T13:35:07.604Z,20.90
2019-04-01T13:37:37.618Z,21.00
2019-04-01T13:40:08.560Z,20.50
2019-04-01T13:42:38.577Z,20.10
2019-04-01T13:45:08.746Z,20.60
2019-04-01T13:47:41.261Z,20.50
2019-04-01T13:50:11.069Z,20.80
2019-04-01T13:52:41.071Z,21.00
2019-04-01T13:55:11.330Z,20.20
2019-04-01T13:57:42.002Z,20.20
2019-04-01T14:00:13.237Z,20.50
2019-04-01T14:02:43.323Z,20.40
2019-04-01T14:05:13.478Z,20.50
2019-04-01T14:07:43.569Z,20.80
2019-04-01T14:10:13.876Z,21.30
2019-04-01T14:12:43.946Z,21.60
2019-04-01T14:15:14.165Z,21.50
2019-04-01T14:17:44.266Z,21.90
2019-04-01T14:20:14.510Z,21.60
2019-04-01T14:22:44.652Z,21.70
2019-04-01T14:25:14.760Z,21.60
2019-04-01T14:27:44.924Z,21.30
2019-04-01T14:30:15.166Z,21.60
2019-04-01T14:32:45.589Z,21.30
2019-04-01T14:35:15.651Z,21.40
2019-04-01T14:37:45.665Z,21.60
2019-04-01T14:40:17.697Z,22.00
2019-04-01T14:42:47.791Z,21.60
2019-04-01T14:45:18.228Z,22.20
2019-04-01T14:47:57.177Z,21.10
2019-04-01T14:50:20.427Z,21.50
2019-04-01T14:52:50.418Z,21.50
2019-04-01T14:55:20.499Z,21.30
2019-04-01T14:57:50.517Z,21.00
2019-04-01T15:00:20.956Z,21.00
2019-04-01T15:02:51.376Z,21.10
2019-04-01T15:05:21.518Z,21.30
2019-04-01T15:07:51.516Z,20.90
2019-04-01T15:10:21.654Z,21.50
2019-04-01T15:13:04.447Z,21.60
2019-04-01T15:15:23.510Z,20.80
2019-04-01T15:17:53.591Z,21.00
2019-04-01T15:20:23.744Z,21.50
2019-04-01T15:22:53.756Z,21.90
2019-04-01T15:25:24.115Z,21.00
2019-04-01T15:27:54.155Z,20.50
2019-04-01T15:30:24.154Z,20.90
2019-04-01T15:32:54.476Z,20.60
2019-04-01T15:35:24.556Z,21.10
2019-04-01T15:37:54.561Z,20.90
2019-04-01T15:40:24.631Z,21.30
2019-04-01T15:42:54.643Z,21.10
2019-04-01T15:45:24.640Z,20.50
2019-04-01T15:47:54.981Z,19.90
2019-04-01T15:50:28.876Z,19.30
2019-04-01T15:52:57.486Z,19.80
2019-04-01T15:55:27.633Z,19.80
2019-04-01T15:57:57.656Z,20.30
2019-04-01T16:00:27.673Z,20.20
2019-04-01T16:02:57.702Z,19.80
2019-04-01T16:05:30.470Z,20.00
2019-04-01T16:07:59.520Z,19.80
2019-04-01T16:10:29.941Z,19.80
2019-04-01T16:12:59.962Z,19.90
2019-04-01T16:15:32.055Z,19.60
2019-04-01T16:18:02.372Z,19.80
2019-04-01T16:20:34.220Z,19.20
2019-04-01T16:23:04.417Z,18.80
2019-04-01T16:25:37.457Z,18.70
2019-04-01T16:28:06.736Z,18.60
2019-04-01T16:30:36.817Z,19.10
2019-04-01T16:33:07.677Z,18.90
2019-04-01T16:35:37.839Z,18.50
2019-04-01T16:38:07.883Z,18.40
2019-04-01T16:40:37.922Z,18.00
2019-04-01T16:43:07.972Z,17.30
2019-04-01T16:45:38.476Z,17.00
2019-04-01T16:48:09.435Z,16.50
2019-04-01T16:50:39.826Z,16.10
2019-04-01T16:53:09.914Z,16.10
2019-04-01T16:55:40.075Z,16.00
2019-04-01T16:58:10.233Z,15.70
2019-04-01T17:00:40.619Z,15.60
2019-04-01T17:03:13.303Z,15.50
2019-04-01T17:05:42.517Z,15.40
2019-04-01T17:08:12.782Z,15.30
2019-04-01T17:10:42.793Z,15.20
2019-04-01T17:13:12.968Z,15.00
2019-04-01T17:15:43.051Z,14.90
2019-04-01T17:18:13.147Z,14.80
2019-04-01T17:20:43.962Z,14.80
2019-04-01T17:23:14.136Z,14.70
2019-04-01T17:25:44.298Z,14.80
2019-04-01T17:28:14.325Z,14.50
2019-04-01T17:30:44.343Z,14.40
2019-04-01T17:33:14.577Z,14.30
2019-04-01T17:35:45.169Z,14.30
2019-04-01T17:38:15.277Z,14.10
2019-04-01T17:40:45.359Z,14.00
2019-04-01T17:43:16.488Z,14.00
2019-04-01T17:45:47.069Z,13.90
2019-04-01T17:48:17.491Z,13.80
2019-04-01T17:50:47.589Z,13.70
2019-04-01T17:53:17.614Z,13.60
2019-04-01T17:55:48.454Z,13.50
2019-04-01T17:58:18.750Z,13.40
2019-04-01T18:01:00.235Z,13.40
2019-04-01T18:03:30.335Z,13.30
2019-04-01T18:06:00.431Z,13.20
2019-04-01T18:08:30.799Z,13.10
2019-04-01T18:11:00.815Z,13.00
2019-04-01T18:13:31.086Z,13.00
2019-04-01T18:16:01.275Z,12.90
2019-04-01T18:18:33.911Z,12.80
2019-04-01T18:21:03.436Z,12.70
2019-04-01T18:23:33.761Z,12.70
2019-04-01T18:26:03.789Z,12.60
2019-04-01T18:28:33.816Z,12.60
2019-04-01T18:31:04.097Z,12.60
2019-04-01T18:33:34.409Z,12.50
2019-04-01T18:36:04.830Z,12.50
2019-04-01T18:38:35.238Z,12.40
2019-04-01T18:41:05.610Z,12.40
2019-04-01T18:43:35.993Z,12.30
2019-04-01T18:46:06.380Z,12.20
2019-04-01T18:48:36.396Z,12.20
2019-04-01T18:51:06.498Z,12.10
2019-04-01T18:53:36.874Z,12.00
2019-04-01T18:56:06.969Z,12.00
2019-04-01T18:58:36.987Z,11.90
2019-04-01T19:01:07.438Z,11.80
2019-04-01T19:03:38.197Z,11.70
2019-04-01T19:06:09.281Z,11.70
2019-04-01T19:08:39.372Z,11.70
2019-04-01T19:11:10.209Z,11.70
2019-04-01T19:13:42.239Z,11.60
2019-04-01T19:16:16.209Z,11.50
2019-04-01T19:18:44.473Z,11.50
2019-04-01T19:21:14.784Z,11.40
2019-04-01T19:23:45.072Z,11.40
2019-04-01T19:26:15.175Z,11.30
2019-04-01T19:28:47.070Z,11.30
2019-04-01T19:31:17.253Z,11.30
2019-04-01T19:33:47.588Z,11.30
2019-04-01T19:36:17.622Z,11.20
2019-04-01T19:38:47.718Z,11.10
2019-04-01T19:41:18.103Z,11.10
2019-04-01T19:43:51.046Z,11.00
2019-04-01T19:46:20.050Z,11.00
2019-04-01T19:48:51.170Z,10.90
2019-04-01T19:51:21.701Z,10.80
2019-04-01T19:53:52.382Z,10.80
2019-04-01T19:56:23.473Z,10.80
2019-04-01T19:58:54.430Z,10.70
2019-04-01T20:01:24.945Z,10.60
2019-04-01T20:03:55.195Z,10.60
2019-04-01T20:06:25.997Z,10.60
2019-04-01T20:08:56.332Z,10.50
2019-04-01T20:11:26.908Z,10.50
2019-04-01T20:13:57.217Z,10.50
2019-04-01T20:16:27.258Z,10.40
2019-04-01T20:18:57.359Z,10.40
2019-04-01T20:21:28.278Z,10.30
2019-04-01T20:23:58.795Z,10.30
2019-04-01T20:26:28.956Z,10.30
2019-04-01T20:28:59.307Z,10.30
2019-04-01T20:31:29.416Z,10.30
2019-04-01T20:33:59.422Z,10.30
2019-04-01T20:36:31.272Z,10.20
2019-04-01T20:39:01.782Z,10.10
2019-04-01T20:41:32.130Z,10.00
2019-04-01T20:44:02.146Z,10.00
2019-04-01T20:46:32.250Z,10.00
2019-04-01T20:49:02.501Z,10.00
2019-04-01T20:51:32.954Z,9.90
2019-04-01T20:54:03.046Z,9.90
2019-04-01T20:56:34.028Z,9.80
2019-04-01T20:59:04.421Z,9.80
2019-04-01T21:01:35.270Z,9.80
2019-04-01T21:04:05.771Z,9.70
2019-04-01T21:06:35.961Z,9.70
2019-04-01T21:09:09.621Z,9.70
2019-04-01T21:11:40.073Z,9.60
2019-04-01T21:14:10.413Z,9.60
2019-04-01T21:16:40.459Z,9.60
2019-04-01T21:19:10.483Z,9.50
2019-04-01T21:21:40.838Z,9.50
2019-04-01T21:24:11.190Z,9.50
2019-04-01T21:26:42.095Z,9.50
2019-04-01T21:29:12.527Z,9.40
2019-04-01T21:31:42.622Z,9.40
2019-04-01T21:34:12.898Z,9.30
2019-04-01T21:36:42.941Z,9.30
2019-04-01T21:39:13.034Z,9.20
2019-04-01T21:41:43.467Z,9.20
2019-04-01T21:44:13.642Z,9.20
2019-04-01T21:46:43.868Z,9.20
2019-04-01T21:49:14.011Z,9.10
2019-04-01T21:51:44.336Z,9.00
2019-04-01T21:54:14.466Z,9.00
2019-04-01T21:56:44.555Z,9.00
2019-04-01T21:59:14.975Z,8.90
2019-04-01T22:01:46.216Z,8.90
2019-04-01T22:04:16.405Z,8.80
2019-04-01T22:06:46.570Z,8.80
2019-04-01T22:09:16.946Z,8.70
2019-04-01T22:11:47.016Z,8.70
2019-04-01T22:14:17.743Z,8.60
2019-04-01T22:16:48.225Z,8.60
2019-04-01T22:19:18.566Z,8.60
2019-04-01T22:21:48.654Z,8.60
2019-04-01T22:24:18.845Z,8.60
2019-04-01T22:26:48.862Z,8.50
2019-04-01T22:29:19.938Z,8.50
2019-04-01T22:31:50.420Z,8.50
2019-04-01T22:34:21.147Z,8.40
2019-04-01T22:36:51.163Z,8.40
2019-04-01T22:39:26.951Z,8.40
2019-04-01T22:41:52.989Z,8.30
2019-04-01T22:44:23.818Z,8.30
2019-04-01T22:46:53.845Z,8.30
2019-04-01T22:49:24.227Z,8.20
2019-04-01T22:51:54.228Z,8.20
2019-04-01T22:54:24.283Z,8.10
2019-04-01T22:56:55.140Z,8.10
2019-04-01T22:59:25.920Z,8.10
2019-04-01T23:01:55.997Z,8.10
2019-04-01T23:04:26.027Z,8.00
2019-04-01T23:06:56.065Z,8.10
2019-04-01T23:09:26.669Z,8.10
2019-04-01T23:11:56.991Z,8.00
2019-04-01T23:14:27.086Z,7.90
2019-04-01T23:16:58.161Z,7.90
2019-04-01T23:19:28.206Z,7.80
2019-04-01T23:21:58.210Z,7.80
2019-04-01T23:24:28.713Z,7.80
2019-04-01T23:26:58.678Z,7.70
2019-04-01T23:29:29.183Z,7.70
2019-04-01T23:31:59.522Z,7.70
2019-04-01T23:34:29.955Z,7.70
2019-04-01T23:37:00.373Z,7.60
2019-04-01T23:39:30.767Z,7.60
2019-04-01T23:42:00.804Z,7.50
2019-04-01T23:44:30.803Z,7.50
2019-04-01T23:47:00.833Z,7.40
2019-04-01T23:49:30.847Z,7.30
2019-04-01T23:52:00.875Z,7.30
2019-04-01T23:54:31.570Z,7.30
2019-04-01T23:57:01.738Z,7.20
2019-04-01T23:59:31.749Z,7.20
